KNYG/NYG METAR and TAF weather

Enter ICAO airport designator
Station Type Date Time Source
KNYG METAR 2021/04/13 21:56 UTC NOAA

KNYG 132156Z 07005KT 10SM CLR 19/11 A3005 RMK AO2 SLP177 T01940106


Station Type Date Time Source
KNYG Decoded METAR 2021/04/13 21:56 UTC NOAA

QUANTICO MARINE CORPS AIRFAC, VA, United States (KNYG) 38-30N 077-18W 3M
Apr 13, 2021 - 05:56 PM EDT / 2021.04.13 2156 UTC
Wind: from the ENE (070 degrees) at 6 MPH (5 KT):0
Visibility: 10 mile(s):0
Sky conditions: clear
Temperature: 66.9 F (19.4 C)
Dew Point: 51.1 F (10.6 C)
Relative Humidity: 56%
Pressure (altimeter): 30.05 in. Hg (1017 hPa)
ob: KNYG 132156Z 07005KT 10SM CLR 19/11 A3005 RMK AO2 SLP177 T01940106
cycle: 22

Station Type Date Time Source
KNYG TAF 2021/04/13 21:45 UTC NOAA

TAF TAF KNYG 1321/1421 06009KT 9999 FEW040 SCT080 QNH3005INS
FM140000 VRB06KT 9999 FEW020 SCT050 QNH3007INS
BECMG 1409/1411 VRB06KT 9999 FEW010 SCT050 BKN060 QNH3010INS
FM141600 VRB06KT 4000 RA BR OVC005 QNH3009INS T18/1322Z T10/1409Z

Example: see airport list